Hammond, Oregon
Current Conditions -  °F | °C
As of 1:26 AM on Monday 20 Oct 2014 (Local Time) from KAST Reporting Station
Overcast Overcast  
Wind Chill: 57°   Ceiling: 2400
Heat Index: 57°   Visibility: 10mi
Dew Point: 55°   Wind: 5mph
Humidity: 93%   Direction: 200°SSW
Pressure: 29.69"   Gusts: NA
Location:  46.2°N, 123.95°W
Report Text: KAST 200826Z AUTO 20004KT 10SM BKN024 OVC050 14/13 A2969 RMK AO2 RAE18 P0000 T01390128
Loading
Personal Weather Stations






























Interactive Weather Map New forecast layout! Learn more

10-Day Weather Forecast

Advertisements
Track Severe Weather on mobile